Time,TemperatureF,DewpointF,PressureIn,WindDirection,WindDirectionDegrees,WindSpeedMPH,WindSpeedGustMPH,Humidity,HourlyPrecipIn,Conditions,Clouds,dailyrainin,SoftwareType,DateUTC
2013-01-12 00:00:00,50.9,48.7,30.01,South,175,1.0,4.0,92,0.00,,,0.00,WeatherCatV1.02B3,2013-01-12 05:00:00,
2013-01-12 00:02:00,51.0,48.8,30.01,SSE,153,1.0,4.0,92,0.00,,,0.00,WeatherCatV1.02B3,2013-01-12 05:02:00,
2013-01-12 00:03:00,51.0,48.8,30.01,SSE,151,1.0,1.0,92,0.00,,,0.00,WeatherCatV1.02B3,2013-01-12 05:03:00,
2013-01-12 00:08:00,51.2,49.0,30.00,ESE,115,1.0,3.0,92,0.00,,,0.00,WeatherCatV1.02B3,2013-01-12 05:08:00,
2013-01-12 00:13:00,51.3,49.1,30.01,East,85,1.0,2.0,92,0.00,,,0.00,WeatherCatV1.02B3,2013-01-12 05:13:00,
2013-01-12 00:18:00,51.3,49.1,30.01,East,89,0.0,1.0,92,0.00,,,0.00,WeatherCatV1.02B3,2013-01-12 05:18:00,
2013-01-12 00:23:00,51.2,48.7,30.01,SE,145,0.0,2.0,91,0.00,,,0.00,WeatherCatV1.02B3,2013-01-12 05:23:00,
2013-01-12 00:28:00,51.1,48.6,30.02,SE,146,0.0,0.0,91,0.00,,,0.00,WeatherCatV1.02B3,2013-01-12 05:28:00,
2013-01-12 00:30:00,51.1,48.6,30.02,ESE,103,3.0,3.0,91,0.00,,,0.00,WeatherCatV1.02B3,2013-01-12 05:30:00,
2013-01-12 00:35:00,51.1,48.6,30.01,ESE,120,2.0,4.0,91,0.00,,,0.00,WeatherCatV1.02B3,2013-01-12 05:35:00,
2013-01-12 00:40:00,51.3,48.8,30.01,ESE,116,0.0,4.0,91,0.00,,,0.00,WeatherCatV1.02B3,2013-01-12 05:40:00,
2013-01-12 00:45:00,51.3,48.8,30.01,ESE,111,0.0,4.0,91,0.00,,,0.00,WeatherCatV1.02B3,2013-01-12 05:45:00,
2013-01-12 00:50:00,51.3,48.8,30.01,ESE,107,0.0,0.0,91,0.00,,,0.00,WeatherCatV1.02B3,2013-01-12 05:50:00,
2013-01-12 00:55:00,51.4,48.6,30.00,ESE,117,2.0,5.0,90,0.00,,,0.00,WeatherCatV1.02B3,2013-01-12 05:55:00,
2013-01-12 01:00:00,51.4,48.6,30.00,SE,141,0.0,2.0,90,0.00,,,0.00,WeatherCatV1.02B3,2013-01-12 06:00:00,
2013-01-12 01:05:00,51.3,48.5,30.01,SE,125,0.0,0.0,90,0.00,,,0.00,WeatherCatV1.02B3,2013-01-12 06:05:00,
2013-01-12 01:10:00,51.0,48.2,30.01,SE,125,0.0,0.0,90,0.00,,,0.00,WeatherCatV1.02B3,2013-01-12 06:10:00,
2013-01-12 01:15:00,50.9,48.1,30.01,SSW,196,0.0,3.0,90,0.00,,,0.00,WeatherCatV1.02B3,2013-01-12 06:15:00,
2013-01-12 01:20:00,50.8,48.0,30.01,ESE,123,0.0,0.0,90,0.00,,,0.00,WeatherCatV1.02B3,2013-01-12 06:20:00,
2013-01-12 01:25:00,50.7,47.9,30.01,SSW,202,0.0,1.0,90,0.00,,,0.00,WeatherCatV1.02B3,2013-01-12 06:25:00,
2013-01-12 01:30:00,50.7,47.9,30.01,East,98,1.0,2.0,90,0.00,,,0.00,WeatherCatV1.02B3,2013-01-12 06:30:00,
2013-01-12 01:35:00,50.8,48.0,30.01,ESE,102,0.0,1.0,90,0.00,,,0.00,WeatherCatV1.02B3,2013-01-12 06:35:00,
2013-01-12 01:40:00,50.8,48.3,30.02,SE,132,0.0,2.0,91,0.00,,,0.00,WeatherCatV1.02B3,2013-01-12 06:40:00,
2013-01-12 01:45:00,50.8,48.3,30.02,ESE,119,3.0,4.0,91,0.00,,,0.00,WeatherCatV1.02B3,2013-01-12 06:45:00,
2013-01-12 01:50:00,50.8,48.3,30.02,NNW,344,0.0,1.0,91,0.00,,,0.00,WeatherCatV1.02B3,2013-01-12 06:50:00,
2013-01-12 01:55:00,50.6,48.1,30.02,South,169,0.0,0.0,91,0.00,,,0.00,WeatherCatV1.02B3,2013-01-12 06:55:00,
2013-01-12 02:00:00,50.6,48.1,30.02,ESE,110,3.0,4.0,91,0.00,,,0.00,WeatherCatV1.02B3,2013-01-12 07:00:00,
2013-01-12 02:05:00,51.1,48.6,30.02,SE,128,1.0,6.0,91,0.00,,,0.00,WeatherCatV1.02B3,2013-01-12 07:05:00,
2013-01-12 02:10:00,50.9,48.4,30.02,ESE,123,0.0,4.0,91,0.00,,,0.00,WeatherCatV1.02B3,2013-01-12 07:10:00,
2013-01-12 02:15:00,50.9,48.4,30.03,ESE,119,2.0,3.0,91,0.00,,,0.00,WeatherCatV1.02B3,2013-01-12 07:15:00,
2013-01-12 02:20:00,50.9,48.4,30.03,ESE,108,1.0,3.0,91,0.00,,,0.00,WeatherCatV1.02B3,2013-01-12 07:20:00,
2013-01-12 02:25:00,51.0,48.5,30.02,SSE,148,0.0,4.0,91,0.00,,,0.00,WeatherCatV1.02B3,2013-01-12 07:25:00,
2013-01-12 02:30:00,50.8,48.0,30.02,East,96,1.0,2.0,90,0.00,,,0.00,WeatherCatV1.02B3,2013-01-12 07:30:00,
2013-01-12 02:35:00,51.1,48.6,30.03,SE,129,0.0,0.0,91,0.00,,,0.00,WeatherCatV1.02B3,2013-01-12 07:35:00,
2013-01-12 02:40:00,51.1,48.6,30.04,SW,218,0.0,4.0,91,0.00,,,0.00,WeatherCatV1.02B3,2013-01-12 07:40:00,
2013-01-12 02:45:00,51.3,48.8,30.03,SE,138,0.0,5.0,91,0.00,,,0.00,WeatherCatV1.02B3,2013-01-12 07:45:00,
2013-01-12 02:50:00,51.3,48.8,30.03,ESE,123,2.0,5.0,91,0.00,,,0.00,WeatherCatV1.02B3,2013-01-12 07:50:00,
2013-01-12 02:55:00,51.1,48.6,30.04,ESE,117,2.0,3.0,91,0.00,,,0.00,WeatherCatV1.02B3,2013-01-12 07:55:00,
2013-01-12 03:00:00,51.2,48.7,30.03,SE,126,0.0,2.0,91,0.00,,,0.00,WeatherCatV1.02B3,2013-01-12 08:00:00,
2013-01-12 03:05:00,51.3,48.8,30.03,ESE,104,0.0,2.0,91,0.00,,,0.00,WeatherCatV1.02B3,2013-01-12 08:05:00,
2013-01-12 03:10:00,51.2,48.7,30.03,SE,146,3.0,3.0,91,0.00,,,0.00,WeatherCatV1.02B3,2013-01-12 08:10:00,
2013-01-12 03:15:00,50.9,48.4,30.04,SSE,167,0.0,2.0,91,0.00,,,0.00,WeatherCatV1.02B3,2013-01-12 08:15:00,
2013-01-12 03:20:00,50.6,48.1,30.04,SE,138,1.0,4.0,91,0.00,,,0.00,WeatherCatV1.02B3,2013-01-12 08:20:00,
2013-01-12 03:25:00,50.5,48.0,30.03,ESE,110,5.0,7.0,91,0.00,,,0.00,WeatherCatV1.02B3,2013-01-12 08:25:00,
2013-01-12 03:30:00,50.5,48.0,30.03,ESE,117,5.0,6.0,91,0.00,,,0.00,WeatherCatV1.02B3,2013-01-12 08:30:00,
2013-01-12 03:35:00,50.2,48.0,30.03,ESE,123,1.0,5.0,92,0.00,,,0.00,WeatherCatV1.02B3,2013-01-12 08:35:00,
2013-01-12 03:40:00,49.9,47.7,30.03,ESE,119,3.0,5.0,92,0.00,,,0.00,WeatherCatV1.02B3,2013-01-12 08:40:00,
2013-01-12 03:45:00,49.8,47.6,30.03,SE,135,2.0,5.0,92,0.00,,,0.00,WeatherCatV1.02B3,2013-01-12 08:45:00,
2013-01-12 03:50:00,49.8,47.6,30.03,ESE,117,3.0,6.0,92,0.00,,,0.00,WeatherCatV1.02B3,2013-01-12 08:50:00,
2013-01-12 03:55:00,49.8,47.6,30.03,SE,128,0.0,3.0,92,0.00,,,0.00,WeatherCatV1.02B3,2013-01-12 08:55:00,
2013-01-12 04:00:00,49.7,47.8,30.03,ESE,118,5.0,6.0,93,0.00,,,0.00,WeatherCatV1.02B3,2013-01-12 09:00:00,
2013-01-12 04:05:00,49.7,47.8,30.03,SE,140,0.0,5.0,93,0.00,,,0.00,WeatherCatV1.02B3,2013-01-12 09:05:00,
2013-01-12 04:10:00,49.5,47.6,30.03,SE,142,0.0,2.0,93,0.00,,,0.00,WeatherCatV1.02B3,2013-01-12 09:10:00,
2013-01-12 04:15:00,49.4,47.5,30.03,SE,124,5.0,5.0,93,0.00,,,0.00,WeatherCatV1.02B3,2013-01-12 09:15:00,
2013-01-12 04:20:00,49.3,47.4,30.02,ESE,113,1.0,6.0,93,0.00,,,0.00,WeatherCatV1.02B3,2013-01-12 09:20:00,
2013-01-12 04:25:00,49.3,47.4,30.03,ESE,107,6.0,6.0,93,0.00,,,0.00,WeatherCatV1.02B3,2013-01-12 09:25:00,
2013-01-12 04:30:00,49.2,47.3,30.03,ESE,119,2.0,3.0,93,0.00,,,0.00,WeatherCatV1.02B3,2013-01-12 09:30:00,
2013-01-12 04:35:00,49.1,47.2,30.03,ESE,123,3.0,4.0,93,0.00,,,0.00,WeatherCatV1.02B3,2013-01-12 09:35:00,
2013-01-12 04:40:00,49.1,47.4,30.03,ESE,117,3.0,4.0,94,0.00,,,0.00,WeatherCatV1.02B3,2013-01-12 09:40:00,
2013-01-12 04:46:00,49.3,47.6,30.03,ESE,102,7.0,7.0,94,0.00,,,0.00,WeatherCatV1.02B3,2013-01-12 09:46:00,
2013-01-12 04:51:00,49.4,47.7,30.03,SE,130,1.0,10.0,94,0.00,,,0.00,WeatherCatV1.02B3,2013-01-12 09:51:00,
2013-01-12 04:56:00,49.3,47.6,30.03,SE,127,3.0,4.0,94,0.00,,,0.00,WeatherCatV1.02B3,2013-01-12 09:56:00,
2013-01-12 05:01:00,49.5,47.8,30.02,SE,132,2.0,4.0,94,0.00,,,0.00,WeatherCatV1.02B3,2013-01-12 10:01:00,
2013-01-12 05:06:00,49.5,47.8,30.03,SE,129,1.0,7.0,94,0.00,,,0.00,WeatherCatV1.02B3,2013-01-12 10:06:00,
2013-01-12 05:11:00,49.5,47.8,30.03,SE,128,3.0,3.0,94,0.00,,,0.00,WeatherCatV1.02B3,2013-01-12 10:11:00,
2013-01-12 05:16:00,49.6,47.9,30.03,ESE,109,3.0,3.0,94,0.00,,,0.00,WeatherCatV1.02B3,2013-01-12 10:16:00,
2013-01-12 05:21:00,49.6,47.9,30.03,SE,132,0.0,7.0,94,0.00,,,0.00,WeatherCatV1.02B3,2013-01-12 10:21:00,
2013-01-12 05:26:00,49.6,47.9,30.03,ESE,118,3.0,4.0,94,0.00,,,0.00,WeatherCatV1.02B3,2013-01-12 10:26:00,
2013-01-12 05:31:00,49.6,47.9,30.04,SSE,164,0.0,4.0,94,0.00,,,0.00,WeatherCatV1.02B3,2013-01-12 10:31:00,
2013-01-12 05:36:00,49.7,48.0,30.04,ESE,112,2.0,2.0,94,0.00,,,0.00,WeatherCatV1.02B3,2013-01-12 10:36:00,
2013-01-12 05:41:00,50.0,48.3,30.04,SE,125,2.0,8.0,94,0.00,,,0.00,WeatherCatV1.02B3,2013-01-12 10:41:00,
2013-01-12 05:46:00,50.0,48.3,30.04,SE,145,6.0,7.0,94,0.00,,,0.00,WeatherCatV1.02B3,2013-01-12 10:46:00,
2013-01-12 05:51:00,50.1,48.4,30.04,SE,133,1.0,5.0,94,0.00,,,0.00,WeatherCatV1.02B3,2013-01-12 10:51:00,
2013-01-12 05:56:00,50.1,48.4,30.04,SE,146,7.0,7.0,94,0.00,,,0.00,WeatherCatV1.02B3,2013-01-12 10:56:00,
2013-01-12 06:01:00,50.2,48.5,30.04,ESE,119,2.0,4.0,94,0.00,,,0.00,WeatherCatV1.02B3,2013-01-12 11:01:00,
2013-01-12 06:06:00,50.2,48.5,30.04,ESE,113,4.0,5.0,94,0.00,,,0.00,WeatherCatV1.02B3,2013-01-12 11:06:00,
2013-01-12 06:11:00,50.3,48.6,30.04,ESE,117,2.0,9.0,94,0.00,,,0.00,WeatherCatV1.02B3,2013-01-12 11:11:00,
2013-01-12 06:16:00,50.6,49.2,30.04,SE,139,0.0,5.0,95,0.00,,,0.00,WeatherCatV1.02B3,2013-01-12 11:16:00,
2013-01-12 06:21:00,50.7,49.3,30.04,SE,138,1.0,8.0,95,0.00,,,0.00,WeatherCatV1.02B3,2013-01-12 11:21:00,
2013-01-12 06:26:00,50.9,49.5,30.05,South,186,4.0,7.0,95,0.00,,,0.00,WeatherCatV1.02B3,2013-01-12 11:26:00,
2013-01-12 06:31:00,50.9,49.5,30.04,SE,145,0.0,6.0,95,0.00,,,0.00,WeatherCatV1.02B3,2013-01-12 11:31:00,
2013-01-12 06:36:00,50.9,49.5,30.04,ESE,107,4.0,5.0,95,0.00,,,0.00,WeatherCatV1.02B3,2013-01-12 11:36:00,
2013-01-12 06:41:00,51.2,49.8,30.04,ESE,113,3.0,5.0,95,0.00,,,0.00,WeatherCatV1.02B3,2013-01-12 11:41:00,
2013-01-12 06:46:00,51.3,49.9,30.04,ESE,117,1.0,4.0,95,0.00,,,0.00,WeatherCatV1.02B3,2013-01-12 11:46:00,
2013-01-12 06:51:00,51.4,50.0,30.04,SW,229,0.0,3.0,95,0.00,,,0.00,WeatherCatV1.02B3,2013-01-12 11:51:00,
2013-01-12 06:56:00,51.6,50.2,30.04,ESE,122,2.0,11.0,95,0.00,,,0.00,WeatherCatV1.02B3,2013-01-12 11:56:00,
2013-01-12 07:01:00,51.5,50.1,30.04,SE,130,1.0,4.0,95,0.00,,,0.00,WeatherCatV1.02B3,2013-01-12 12:01:00,
2013-01-12 07:06:00,51.7,50.3,30.04,SE,146,1.0,8.0,95,0.00,,,0.00,WeatherCatV1.02B3,2013-01-12 12:06:00,
2013-01-12 07:11:00,51.9,50.5,30.05,SSE,163,1.0,9.0,95,0.00,,,0.00,WeatherCatV1.02B3,2013-01-12 12:11:00,
2013-01-12 07:16:00,51.9,50.5,30.05,SE,136,3.0,3.0,95,0.00,,,0.00,WeatherCatV1.02B3,2013-01-12 12:16:00,
2013-01-12 07:21:00,52.1,50.7,30.05,SSW,196,1.0,3.0,95,0.00,,,0.00,WeatherCatV1.02B3,2013-01-12 12:21:00,
2013-01-12 07:26:00,52.2,50.8,30.04,ESE,123,5.0,7.0,95,0.00,,,0.00,WeatherCatV1.02B3,2013-01-12 12:26:00,
2013-01-12 07:31:00,52.2,50.8,30.04,ESE,121,4.0,4.0,95,0.00,,,0.00,WeatherCatV1.02B3,2013-01-12 12:31:00,
2013-01-12 07:36:00,52.3,50.9,30.04,SE,137,2.0,7.0,95,0.00,,,0.00,WeatherCatV1.02B3,2013-01-12 12:36:00,
2013-01-12 07:41:00,52.4,51.0,30.03,SE,124,0.0,7.0,95,0.00,,,0.00,WeatherCatV1.02B3,2013-01-12 12:41:00,
2013-01-12 07:46:00,52.5,51.1,30.03,SE,146,0.0,2.0,95,0.00,,,0.00,WeatherCatV1.02B3,2013-01-12 12:46:00,
2013-01-12 07:51:00,52.6,51.2,30.03,East,101,3.0,4.0,95,0.00,,,0.00,WeatherCatV1.02B3,2013-01-12 12:51:00,
2013-01-12 07:56:00,52.6,51.2,30.03,SSE,152,1.0,3.0,95,0.00,,,0.00,WeatherCatV1.02B3,2013-01-12 12:56:00,
2013-01-12 08:01:00,52.7,51.3,30.04,SE,130,0.0,6.0,95,0.00,,,0.00,WeatherCatV1.02B3,2013-01-12 13:01:00,
2013-01-12 08:06:00,52.9,51.5,30.05,ESE,119,5.0,11.0,95,0.00,,,0.00,WeatherCatV1.02B3,2013-01-12 13:06:00,
2013-01-12 08:11:00,52.9,51.5,30.05,ESE,121,2.0,5.0,95,0.00,,,0.00,WeatherCatV1.02B3,2013-01-12 13:11:00,
2013-01-12 08:16:00,53.1,51.7,30.05,SSE,148,0.0,7.0,95,0.00,,,0.00,WeatherCatV1.02B3,2013-01-12 13:16:00,
2013-01-12 08:21:00,53.2,51.8,30.04,SW,236,0.0,6.0,95,0.00,,,0.00,WeatherCatV1.02B3,2013-01-12 13:21:00,
2013-01-12 08:26:00,53.1,51.7,30.05,East,95,2.0,3.0,95,0.00,,,0.00,WeatherCatV1.02B3,2013-01-12 13:26:00,
2013-01-12 08:31:00,53.3,51.6,30.05,SE,126,5.0,5.0,94,0.00,,,0.00,WeatherCatV1.02B3,2013-01-12 13:31:00,
2013-01-12 08:36:00,53.3,51.6,30.05,ESE,121,2.0,5.0,94,0.00,,,0.00,WeatherCatV1.02B3,2013-01-12 13:36:00,
2013-01-12 08:42:00,53.7,52.3,30.05,SSE,156,0.0,7.0,95,0.00,,,0.00,WeatherCatV1.02B3,2013-01-12 13:42:00,
2013-01-12 08:47:00,53.7,52.0,30.05,SE,127,1.0,5.0,94,0.00,,,0.00,WeatherCatV1.02B3,2013-01-12 13:47:00,
2013-01-12 08:52:00,53.8,52.1,30.06,South,182,0.0,4.0,94,0.00,,,0.00,WeatherCatV1.02B3,2013-01-12 13:52:00,
2013-01-12 08:57:00,53.9,52.2,30.05,ESE,121,2.0,7.0,94,0.00,,,0.00,WeatherCatV1.02B3,2013-01-12 13:57:00,
2013-01-12 09:02:00,54.0,52.3,30.06,ENE,57,3.0,4.0,94,0.00,,,0.00,WeatherCatV1.02B3,2013-01-12 14:02:00,
2013-01-12 09:07:00,54.0,52.3,30.04,SE,127,7.0,7.0,94,0.00,,,0.00,WeatherCatV1.02B3,2013-01-12 14:07:00,
2013-01-12 09:12:00,54.0,52.3,30.05,ESE,117,1.0,5.0,94,0.00,,,0.00,WeatherCatV1.02B3,2013-01-12 14:12:00,
2013-01-12 09:17:00,54.0,52.3,30.05,SE,142,0.0,0.0,94,0.00,,,0.00,WeatherCatV1.02B3,2013-01-12 14:17:00,
2013-01-12 09:22:00,54.2,52.5,30.05,South,188,3.0,3.0,94,0.00,,,0.00,WeatherCatV1.02B3,2013-01-12 14:22:00,
2013-01-12 09:27:00,54.3,52.6,30.06,SSW,201,5.0,6.0,94,0.00,,,0.00,WeatherCatV1.02B3,2013-01-12 14:27:00,
2013-01-12 09:32:00,54.5,52.8,30.06,SE,138,0.0,1.0,94,0.00,,,0.00,WeatherCatV1.02B3,2013-01-12 14:32:00,
2013-01-12 09:37:00,54.5,52.5,30.06,ESE,106,5.0,6.0,93,0.00,,,0.00,WeatherCatV1.02B3,2013-01-12 14:37:00,
2013-01-12 09:42:00,54.5,52.5,30.06,SE,133,0.0,3.0,93,0.00,,,0.00,WeatherCatV1.02B3,2013-01-12 14:42:00,
2013-01-12 09:47:00,54.5,52.5,30.06,ESE,123,2.0,9.0,93,0.00,,,0.00,WeatherCatV1.02B3,2013-01-12 14:47:00,
2013-01-12 09:52:00,54.5,52.5,30.07,SE,135,0.0,4.0,93,0.00,,,0.00,WeatherCatV1.02B3,2013-01-12 14:52:00,
2013-01-12 09:57:00,54.9,52.9,30.07,SSW,194,4.0,6.0,93,0.00,,,0.00,WeatherCatV1.02B3,2013-01-12 14:57:00,
2013-01-12 10:02:00,55.1,52.8,30.07,SSE,153,0.0,3.0,92,0.00,,,0.00,WeatherCatV1.02B3,2013-01-12 15:02:00,
2013-01-12 10:07:00,55.3,53.0,30.07,SSE,148,0.0,1.0,92,0.00,,,0.00,WeatherCatV1.02B3,2013-01-12 15:07:00,
2013-01-12 10:12:00,55.7,53.4,30.07,SE,142,3.0,6.0,92,0.00,,,0.00,WeatherCatV1.02B3,2013-01-12 15:12:00,
2013-01-12 10:17:00,56.1,53.5,30.07,SE,144,0.0,7.0,91,0.00,,,0.00,WeatherCatV1.02B3,2013-01-12 15:17:00,
2013-01-12 10:22:00,56.2,53.3,30.08,SE,132,0.0,2.0,90,0.00,,,0.00,WeatherCatV1.02B3,2013-01-12 15:22:00,
2013-01-12 10:27:00,56.1,52.9,30.08,SW,217,4.0,4.0,89,0.00,,,0.00,WeatherCatV1.02B3,2013-01-12 15:27:00,
2013-01-12 10:32:00,56.0,52.8,30.08,ESE,113,5.0,5.0,89,0.00,,,0.00,WeatherCatV1.02B3,2013-01-12 15:32:00,
2013-01-12 10:37:00,56.4,53.2,30.07,SE,134,0.0,7.0,89,0.00,,,0.00,WeatherCatV1.02B3,2013-01-12 15:37:00,
2013-01-12 10:42:00,56.5,53.3,30.08,SW,217,7.0,7.0,89,0.00,,,0.00,WeatherCatV1.02B3,2013-01-12 15:42:00,
2013-01-12 10:47:00,56.2,53.0,30.08,South,178,3.0,8.0,89,0.00,,,0.00,WeatherCatV1.02B3,2013-01-12 15:47:00,
2013-01-12 10:52:00,56.1,52.9,30.08,SSE,153,0.0,6.0,89,0.00,,,0.00,WeatherCatV1.02B3,2013-01-12 15:52:00,
2013-01-12 10:57:00,56.1,52.9,30.07,ESE,122,1.0,4.0,89,0.00,,,0.00,WeatherCatV1.02B3,2013-01-12 15:57:00,
2013-01-12 11:03:00,56.1,52.9,30.07,SE,137,5.0,5.0,89,0.00,,,0.00,WeatherCatV1.02B3,2013-01-12 16:03:00,
2013-01-12 11:08:00,56.3,53.1,30.07,SSE,168,1.0,4.0,89,0.00,,,0.00,WeatherCatV1.02B3,2013-01-12 16:08:00,
2013-01-12 11:13:00,56.5,53.3,30.07,East,93,5.0,7.0,89,0.00,,,0.00,WeatherCatV1.02B3,2013-01-12 16:13:00,
2013-01-12 11:18:00,56.9,53.7,30.07,SSE,153,0.0,6.0,89,0.00,,,0.00,WeatherCatV1.02B3,2013-01-12 16:18:00,
2013-01-12 11:23:00,57.2,53.7,30.07,SSW,211,4.0,6.0,88,0.00,,,0.00,WeatherCatV1.02B3,2013-01-12 16:23:00,
2013-01-12 11:28:00,57.5,53.7,30.07,SSW,201,1.0,5.0,87,0.00,,,0.00,WeatherCatV1.02B3,2013-01-12 16:28:00,
2013-01-12 11:33:00,57.9,54.1,30.07,SSW,209,1.0,3.0,87,0.00,,,0.00,WeatherCatV1.02B3,2013-01-12 16:33:00,
2013-01-12 11:38:00,58.0,54.2,30.07,East,82,0.0,3.0,87,0.00,,,0.00,WeatherCatV1.02B3,2013-01-12 16:38:00,
2013-01-12 11:43:00,58.1,53.9,30.06,SE,138,0.0,7.0,86,0.00,,,0.00,WeatherCatV1.02B3,2013-01-12 16:43:00,
2013-01-12 11:48:00,58.1,53.9,30.06,SW,216,3.0,6.0,86,0.00,,,0.00,WeatherCatV1.02B3,2013-01-12 16:48:00,
2013-01-12 11:53:00,58.2,54.0,30.05,SSE,149,3.0,8.0,86,0.00,,,0.00,WeatherCatV1.02B3,2013-01-12 16:53:00,
2013-01-12 11:58:00,58.4,54.2,30.06,SSW,201,0.0,3.0,86,0.00,,,0.00,WeatherCatV1.02B3,2013-01-12 16:58:00,
2013-01-12 12:03:00,58.7,54.5,30.05,ESE,105,5.0,5.0,86,0.00,,,0.00,WeatherCatV1.02B3,2013-01-12 17:03:00,
2013-01-12 12:08:00,58.8,54.3,30.05,SSW,205,3.0,6.0,85,0.00,,,0.00,WeatherCatV1.02B3,2013-01-12 17:08:00,
2013-01-12 12:13:00,59.0,54.5,30.04,SE,137,0.0,2.0,85,0.00,,,0.00,WeatherCatV1.02B3,2013-01-12 17:13:00,
2013-01-12 12:18:00,59.3,54.5,30.04,ESE,119,1.0,4.0,84,0.00,,,0.00,WeatherCatV1.02B3,2013-01-12 17:18:00,
2013-01-12 12:23:00,59.4,54.6,30.05,SSW,207,0.0,4.0,84,0.00,,,0.00,WeatherCatV1.02B3,2013-01-12 17:23:00,
2013-01-12 12:28:00,59.5,54.7,30.05,SW,222,4.0,5.0,84,0.00,,,0.00,WeatherCatV1.02B3,2013-01-12 17:28:00,
2013-01-12 12:33:00,59.6,54.4,30.05,South,188,3.0,4.0,83,0.00,,,0.00,WeatherCatV1.02B3,2013-01-12 17:33:00,
2013-01-12 12:38:00,60.0,54.8,30.04,SW,215,0.0,0.0,83,0.00,,,0.00,WeatherCatV1.02B3,2013-01-12 17:38:00,
2013-01-12 12:43:00,60.0,54.5,30.04,SSW,201,0.0,5.0,82,0.00,,,0.00,WeatherCatV1.02B3,2013-01-12 17:43:00,
2013-01-12 12:48:00,60.4,54.9,30.03,ESE,123,0.0,6.0,82,0.00,,,0.01,WeatherCatV1.02B3,2013-01-12 17:48:00,
2013-01-12 12:53:00,60.6,55.1,30.03,SW,226,0.0,1.0,82,0.00,,,0.01,WeatherCatV1.02B3,2013-01-12 17:53:00,
2013-01-12 12:58:00,60.9,55.0,30.03,SSW,195,1.0,5.0,81,0.00,,,0.01,WeatherCatV1.02B3,2013-01-12 17:58:00,
2013-01-12 13:03:00,61.0,54.8,30.04,ESE,113,0.0,5.0,80,0.00,,,0.01,WeatherCatV1.02B3,2013-01-12 18:03:00,
2013-01-12 13:08:00,60.9,54.7,30.03,South,181,0.0,1.0,80,0.00,,,0.01,WeatherCatV1.02B3,2013-01-12 18:08:00,
2013-01-12 13:13:00,61.0,55.1,30.03,SSW,203,0.0,3.0,81,0.00,,,0.01,WeatherCatV1.02B3,2013-01-12 18:13:00,
2013-01-12 13:18:00,61.2,55.3,30.03,SSW,203,1.0,4.0,81,0.00,,,0.01,WeatherCatV1.02B3,2013-01-12 18:18:00,
2013-01-12 13:23:00,61.4,54.8,30.03,SSW,211,0.0,3.0,79,0.00,,,0.01,WeatherCatV1.02B3,2013-01-12 18:23:00,
2013-01-12 13:28:00,61.5,54.9,30.03,SSE,163,0.0,2.0,79,0.00,,,0.01,WeatherCatV1.02B3,2013-01-12 18:28:00,
2013-01-12 13:33:00,61.6,55.0,30.02,SSE,165,0.0,0.0,79,0.00,,,0.01,WeatherCatV1.02B3,2013-01-12 18:33:00,
2013-01-12 13:38:00,61.8,55.2,30.02,ESE,113,2.0,5.0,79,0.00,,,0.01,WeatherCatV1.02B3,2013-01-12 18:38:00,
2013-01-12 13:43:00,61.8,54.9,30.01,ESE,113,4.0,5.0,78,0.00,,,0.01,WeatherCatV1.02B3,2013-01-12 18:43:00,
2013-01-12 13:48:00,61.7,54.8,30.02,South,182,0.0,0.0,78,0.00,,,0.01,WeatherCatV1.02B3,2013-01-12 18:48:00,
2013-01-12 13:53:00,61.8,54.9,30.02,SSW,201,3.0,3.0,78,0.00,,,0.01,WeatherCatV1.02B3,2013-01-12 18:53:00,
2013-01-12 13:58:00,61.8,55.2,30.02,ESE,119,0.0,0.0,79,0.00,,,0.01,WeatherCatV1.02B3,2013-01-12 18:58:00,
2013-01-12 14:03:00,61.8,54.9,30.02,SSE,167,0.0,5.0,78,0.00,,,0.01,WeatherCatV1.02B3,2013-01-12 19:03:00,
2013-01-12 14:08:00,61.7,54.8,30.02,SE,140,4.0,6.0,78,0.00,,,0.01,WeatherCatV1.02B3,2013-01-12 19:08:00,
2013-01-12 14:13:00,61.7,54.8,30.02,ENE,71,0.0,5.0,78,0.00,,,0.01,WeatherCatV1.02B3,2013-01-12 19:13:00,
2013-01-12 14:18:00,61.6,54.7,30.02,SSE,155,0.0,11.0,78,0.00,,,0.01,WeatherCatV1.02B3,2013-01-12 19:18:00,
2013-01-12 14:23:00,61.5,54.6,30.02,SE,134,0.0,3.0,78,0.00,,,0.01,WeatherCatV1.02B3,2013-01-12 19:23:00,
2013-01-12 14:28:00,61.6,54.7,30.01,ESE,122,2.0,5.0,78,0.00,,,0.01,WeatherCatV1.02B3,2013-01-12 19:28:00,
2013-01-12 14:33:00,61.7,54.8,30.01,SE,130,5.0,7.0,78,0.00,,,0.01,WeatherCatV1.02B3,2013-01-12 19:33:00,
2013-01-12 14:38:00,61.6,54.7,30.02,SE,144,4.0,7.0,78,0.00,,,0.01,WeatherCatV1.02B3,2013-01-12 19:38:00,
2013-01-12 14:43:00,61.6,54.7,30.02,SE,142,3.0,4.0,78,0.00,,,0.01,WeatherCatV1.02B3,2013-01-12 19:43:00,
2013-01-12 14:48:00,61.7,54.8,30.02,SE,126,0.0,0.0,78,0.00,,,0.01,WeatherCatV1.02B3,2013-01-12 19:48:00,
2013-01-12 14:53:00,61.7,54.8,30.02,NW,322,2.0,3.0,78,0.00,,,0.01,WeatherCatV1.02B3,2013-01-12 19:53:00,
2013-01-12 14:58:00,61.7,54.8,30.02,ESE,119,4.0,5.0,78,0.00,,,0.01,WeatherCatV1.02B3,2013-01-12 19:58:00,
2013-01-12 15:03:00,61.7,54.8,30.02,SE,145,2.0,10.0,78,0.00,,,0.01,WeatherCatV1.02B3,2013-01-12 20:03:00,
2013-01-12 15:08:00,61.7,54.8,30.03,ESE,118,3.0,10.0,78,0.00,,,0.01,WeatherCatV1.02B3,2013-01-12 20:08:00,
2013-01-12 15:13:00,61.7,54.8,30.03,SE,139,4.0,6.0,78,0.00,,,0.01,WeatherCatV1.02B3,2013-01-12 20:13:00,
2013-01-12 15:18:00,61.8,54.9,30.03,SSE,157,0.0,5.0,78,0.00,,,0.01,WeatherCatV1.02B3,2013-01-12 20:18:00,
2013-01-12 15:23:00,61.7,54.4,30.03,SE,125,0.0,0.0,77,0.00,,,0.01,WeatherCatV1.02B3,2013-01-12 20:23:00,
2013-01-12 15:28:00,61.6,54.7,30.04,SSE,148,0.0,3.0,78,0.00,,,0.01,WeatherCatV1.02B3,2013-01-12 20:28:00,
2013-01-12 15:33:00,61.7,54.4,30.03,SE,145,5.0,7.0,77,0.00,,,0.01,WeatherCatV1.02B3,2013-01-12 20:33:00,
2013-01-12 15:38:00,61.7,54.4,30.03,SSW,207,0.0,6.0,77,0.00,,,0.01,WeatherCatV1.02B3,2013-01-12 20:38:00,
2013-01-12 15:43:00,61.5,54.2,30.04,North,355,3.0,10.0,77,0.00,,,0.01,WeatherCatV1.02B3,2013-01-12 20:43:00,
2013-01-12 15:48:00,61.5,54.2,30.04,SSW,213,3.0,5.0,77,0.00,,,0.01,WeatherCatV1.02B3,2013-01-12 20:48:00,
2013-01-12 15:53:00,61.4,54.5,30.05,East,95,0.0,1.0,78,0.00,,,0.01,WeatherCatV1.02B3,2013-01-12 20:53:00,
2013-01-12 15:58:00,61.2,54.3,30.04,SE,142,0.0,7.0,78,0.00,,,0.01,WeatherCatV1.02B3,2013-01-12 20:58:00,
2013-01-12 16:03:00,61.1,54.2,30.05,ESE,113,3.0,7.0,78,0.00,,,0.01,WeatherCatV1.02B3,2013-01-12 21:03:00,
2013-01-12 16:08:00,61.0,54.1,30.05,SSW,194,2.0,3.0,78,0.00,,,0.01,WeatherCatV1.02B3,2013-01-12 21:08:00,
2013-01-12 16:13:00,60.9,54.0,30.05,SE,136,2.0,4.0,78,0.00,,,0.01,WeatherCatV1.02B3,2013-01-12 21:13:00,
2013-01-12 16:18:00,61.0,54.1,30.05,SSW,205,4.0,5.0,78,0.00,,,0.01,WeatherCatV1.02B3,2013-01-12 21:18:00,
2013-01-12 16:23:00,60.8,53.9,30.05,SSW,211,2.0,5.0,78,0.00,,,0.01,WeatherCatV1.02B3,2013-01-12 21:23:00,
2013-01-12 16:28:00,60.7,53.8,30.05,ESE,122,0.0,5.0,78,0.00,,,0.01,WeatherCatV1.02B3,2013-01-12 21:28:00,
2013-01-12 16:33:00,60.6,54.0,30.05,WSW,253,0.0,3.0,79,0.00,,,0.01,WeatherCatV1.02B3,2013-01-12 21:33:00,
2013-01-12 16:38:00,60.1,53.6,30.05,ESE,118,1.0,5.0,79,0.00,,,0.01,WeatherCatV1.02B3,2013-01-12 21:38:00,
2013-01-12 16:43:00,60.0,53.5,30.06,South,175,1.0,3.0,79,0.00,,,0.01,WeatherCatV1.02B3,2013-01-12 21:43:00,
2013-01-12 16:48:00,60.0,53.8,30.06,ESE,123,0.0,0.0,80,0.00,,,0.01,WeatherCatV1.02B3,2013-01-12 21:48:00,
2013-01-12 16:53:00,59.9,53.7,30.06,ESE,103,4.0,4.0,80,0.00,,,0.01,WeatherCatV1.02B3,2013-01-12 21:53:00,
2013-01-12 16:58:00,59.6,53.4,30.06,SE,139,0.0,2.0,80,0.00,,,0.01,WeatherCatV1.02B3,2013-01-12 21:58:00,
2013-01-12 17:03:00,59.3,53.1,30.06,SE,139,0.0,0.0,80,0.00,,,0.01,WeatherCatV1.02B3,2013-01-12 22:03:00,
2013-01-12 17:08:00,59.1,53.3,30.06,SE,139,0.0,0.0,81,0.00,,,0.01,WeatherCatV1.02B3,2013-01-12 22:08:00,
2013-01-12 17:13:00,58.8,53.0,30.06,SE,139,0.0,0.0,81,0.00,,,0.01,WeatherCatV1.02B3,2013-01-12 22:13:00,
2013-01-12 17:18:00,58.6,53.1,30.06,SE,139,0.0,0.0,82,0.00,,,0.01,WeatherCatV1.02B3,2013-01-12 22:18:00,
2013-01-12 17:23:00,58.4,52.9,30.06,SE,138,0.0,0.0,82,0.00,,,0.01,WeatherCatV1.02B3,2013-01-12 22:23:00,
2013-01-12 17:28:00,58.2,53.1,30.07,SE,138,1.0,2.0,83,0.00,,,0.01,WeatherCatV1.02B3,2013-01-12 22:28:00,
2013-01-12 17:33:00,57.9,52.8,30.06,SE,139,0.0,1.0,83,0.00,,,0.01,WeatherCatV1.02B3,2013-01-12 22:33:00,
2013-01-12 17:38:00,57.7,52.6,30.06,SE,139,0.0,0.0,83,0.00,,,0.01,WeatherCatV1.02B3,2013-01-12 22:38:00,
2013-01-12 17:43:00,57.4,52.3,30.06,SE,139,0.0,0.0,83,0.00,,,0.01,WeatherCatV1.02B3,2013-01-12 22:43:00,
2013-01-12 17:48:00,57.2,52.4,30.07,SE,139,0.0,0.0,84,0.00,,,0.01,WeatherCatV1.02B3,2013-01-12 22:48:00,
2013-01-12 17:53:00,56.9,52.4,30.07,SE,139,0.0,0.0,85,0.00,,,0.01,WeatherCatV1.02B3,2013-01-12 22:53:00,
2013-01-12 17:58:00,56.6,52.1,30.06,SE,138,0.0,0.0,85,0.00,,,0.01,WeatherCatV1.02B3,2013-01-12 22:58:00,
2013-01-12 18:03:00,56.5,52.0,30.06,SE,138,0.0,1.0,85,0.00,,,0.01,WeatherCatV1.02B3,2013-01-12 23:03:00,
2013-01-12 18:08:00,56.5,52.4,30.05,SE,139,0.0,2.0,86,0.00,,,0.01,WeatherCatV1.02B3,2013-01-12 23:08:00,
2013-01-12 18:13:00,56.4,52.3,30.05,SE,139,0.0,0.0,86,0.00,,,0.01,WeatherCatV1.02B3,2013-01-12 23:13:00,
2013-01-12 18:18:00,56.1,52.0,30.05,SE,139,0.0,0.0,86,0.00,,,0.01,WeatherCatV1.02B3,2013-01-12 23:18:00,
2013-01-12 18:23:00,55.8,51.7,30.05,SE,138,0.0,0.0,86,0.00,,,0.01,WeatherCatV1.02B3,2013-01-12 23:23:00,
2013-01-12 18:28:00,55.5,51.4,30.05,SE,139,0.0,0.0,86,0.00,,,0.01,WeatherCatV1.02B3,2013-01-12 23:28:00,
2013-01-12 18:33:00,55.1,51.0,30.05,SE,139,0.0,0.0,86,0.00,,,0.01,WeatherCatV1.02B3,2013-01-12 23:33:00,
2013-01-12 18:38:00,55.0,51.2,30.05,SE,139,0.0,0.0,87,0.00,,,0.01,WeatherCatV1.02B3,2013-01-12 23:38:00,
2013-01-12 18:43:00,54.7,50.9,30.05,SE,138,0.0,0.0,87,0.00,,,0.01,WeatherCatV1.02B3,2013-01-12 23:43:00,
2013-01-12 18:48:00,54.3,50.5,30.05,SE,138,0.0,0.0,87,0.00,,,0.01,WeatherCatV1.02B3,2013-01-12 23:48:00,
2013-01-12 18:53:00,54.1,50.3,30.05,SE,139,0.0,0.0,87,0.00,,,0.01,WeatherCatV1.02B3,2013-01-12 23:53:00,
2013-01-12 18:58:00,53.8,50.3,30.06,SE,139,0.0,0.0,88,0.00,,,0.01,WeatherCatV1.02B3,2013-01-12 23:58:00,
2013-01-12 19:03:00,53.5,50.0,30.06,SE,139,0.0,0.0,88,0.00,,,0.01,WeatherCatV1.02B3,2013-01-13 00:03:00,
2013-01-12 19:08:00,53.3,49.8,30.05,SE,139,0.0,0.0,88,0.00,,,0.01,WeatherCatV1.02B3,2013-01-13 00:08:00,
2013-01-12 19:13:00,53.2,50.0,30.06,SE,138,0.0,0.0,89,0.00,,,0.01,WeatherCatV1.02B3,2013-01-13 00:13:00,
2013-01-12 19:18:00,52.8,49.6,30.06,SE,138,0.0,0.0,89,0.00,,,0.01,WeatherCatV1.02B3,2013-01-13 00:18:00,
2013-01-12 19:23:00,52.5,49.4,30.05,SE,138,0.0,0.0,89,0.00,,,0.01,WeatherCatV1.02B3,2013-01-13 00:23:00,
2013-01-12 19:28:00,52.3,49.2,30.06,SE,139,0.0,0.0,89,0.00,,,0.01,WeatherCatV1.02B3,2013-01-13 00:28:00,
2013-01-12 19:33:00,52.1,49.0,30.06,SE,139,0.0,0.0,89,0.00,,,0.01,WeatherCatV1.02B3,2013-01-13 00:33:00,
2013-01-12 19:38:00,51.9,49.1,30.05,SE,138,0.0,0.0,90,0.00,,,0.01,WeatherCatV1.02B3,2013-01-13 00:38:00,
2013-01-12 19:43:00,51.9,49.1,30.05,SE,139,0.0,0.0,90,0.00,,,0.01,WeatherCatV1.02B3,2013-01-13 00:43:00,
2013-01-12 19:48:00,51.8,49.0,30.05,SE,139,0.0,0.0,90,0.00,,,0.01,WeatherCatV1.02B3,2013-01-13 00:48:00,
2013-01-12 19:53:00,51.6,48.8,30.05,SE,139,0.0,0.0,90,0.00,,,0.01,WeatherCatV1.02B3,2013-01-13 00:53:00,
2013-01-12 19:58:00,52.0,49.5,30.04,SE,139,0.0,0.0,91,0.00,,,0.01,WeatherCatV1.02B3,2013-01-13 00:58:00,
2013-01-12 20:03:00,51.8,49.3,30.05,SE,139,0.0,0.0,91,0.00,,,0.01,WeatherCatV1.02B3,2013-01-13 01:03:00,
2013-01-12 20:08:00,51.6,49.1,30.05,SE,139,0.0,0.0,91,0.00,,,0.01,WeatherCatV1.02B3,2013-01-13 01:08:00,
2013-01-12 20:13:00,51.5,49.0,30.05,SE,138,0.0,0.0,91,0.00,,,0.01,WeatherCatV1.02B3,2013-01-13 01:13:00,
2013-01-12 20:18:00,51.3,48.8,30.05,SE,139,0.0,0.0,91,0.00,,,0.01,WeatherCatV1.02B3,2013-01-13 01:18:00,
2013-01-12 20:23:00,51.2,48.7,30.05,SE,139,0.0,0.0,91,0.00,,,0.01,WeatherCatV1.02B3,2013-01-13 01:23:00,
2013-01-12 20:28:00,51.1,48.6,30.05,SE,139,0.0,0.0,91,0.00,,,0.01,WeatherCatV1.02B3,2013-01-13 01:28:00,
2013-01-12 20:33:00,51.1,48.9,30.04,SE,138,0.0,0.0,92,0.00,,,0.01,WeatherCatV1.02B3,2013-01-13 01:33:00,
2013-01-12 20:38:00,51.0,48.8,30.04,SE,138,0.0,0.0,92,0.00,,,0.01,WeatherCatV1.02B3,2013-01-13 01:38:00,
2013-01-12 20:43:00,51.1,48.9,30.04,SE,139,0.0,0.0,92,0.00,,,0.01,WeatherCatV1.02B3,2013-01-13 01:43:00,
2013-01-12 20:48:00,51.4,49.2,30.03,SE,138,0.0,0.0,92,0.00,,,0.01,WeatherCatV1.02B3,2013-01-13 01:48:00,
2013-01-12 20:53:00,53.0,51.0,30.03,SE,138,0.0,1.0,93,0.00,,,0.01,WeatherCatV1.02B3,2013-01-13 01:53:00,
2013-01-12 20:58:00,54.0,52.0,30.02,SE,138,0.0,0.0,93,0.00,,,0.01,WeatherCatV1.02B3,2013-01-13 01:58:00,
2013-01-12 21:03:00,54.4,52.4,30.02,SE,139,0.0,0.0,93,0.00,,,0.01,WeatherCatV1.02B3,2013-01-13 02:03:00,
2013-01-12 21:08:00,54.9,52.9,30.02,SE,139,0.0,2.0,93,0.00,,,0.01,WeatherCatV1.02B3,2013-01-13 02:08:00,
2013-01-12 21:13:00,55.3,53.3,30.02,SE,138,0.0,2.0,93,0.00,,,0.01,WeatherCatV1.02B3,2013-01-13 02:13:00,
2013-01-12 21:18:00,55.6,53.6,30.02,SE,124,0.0,4.0,93,0.00,,,0.01,WeatherCatV1.02B3,2013-01-13 02:18:00,
2013-01-12 21:23:00,55.9,53.9,30.02,SE,124,1.0,1.0,93,0.00,,,0.01,WeatherCatV1.02B3,2013-01-13 02:23:00,
2013-01-12 21:28:00,56.1,53.8,30.01,ESE,123,2.0,3.0,92,0.00,,,0.01,WeatherCatV1.02B3,2013-01-13 02:28:00,
2013-01-12 21:33:00,56.3,53.7,30.01,SSE,150,0.0,0.0,91,0.00,,,0.01,WeatherCatV1.02B3,2013-01-13 02:33:00,
2013-01-12 21:38:00,56.2,53.6,30.00,SSE,150,0.0,0.0,91,0.00,,,0.01,WeatherCatV1.02B3,2013-01-13 02:38:00,
2013-01-12 21:43:00,56.1,53.2,30.00,SSE,150,0.0,2.0,90,0.00,,,0.01,WeatherCatV1.02B3,2013-01-13 02:43:00,
2013-01-12 21:48:00,56.0,53.1,30.00,SSE,150,0.0,0.0,90,0.00,,,0.01,WeatherCatV1.02B3,2013-01-13 02:48:00,
2013-01-12 21:53:00,56.1,53.2,30.00,SSE,149,0.0,1.0,90,0.00,,,0.01,WeatherCatV1.02B3,2013-01-13 02:53:00,
2013-01-12 21:58:00,56.3,53.4,30.00,SSE,149,0.0,2.0,90,0.00,,,0.01,WeatherCatV1.02B3,2013-01-13 02:58:00,
2013-01-12 22:03:00,56.3,53.4,30.00,SSE,149,0.0,1.0,90,0.00,,,0.01,WeatherCatV1.02B3,2013-01-13 03:03:00,
2013-01-12 22:08:00,56.3,53.4,29.99,SE,125,1.0,2.0,90,0.00,,,0.01,WeatherCatV1.02B3,2013-01-13 03:08:00,
2013-01-12 22:13:00,56.4,53.5,29.99,SE,126,0.0,2.0,90,0.00,,,0.01,WeatherCatV1.02B3,2013-01-13 03:13:00,
2013-01-12 22:18:00,56.5,53.6,29.99,SE,128,2.0,3.0,90,0.00,,,0.01,WeatherCatV1.02B3,2013-01-13 03:18:00,
2013-01-12 22:23:00,56.7,53.5,29.99,ESE,122,2.0,3.0,89,0.00,,,0.01,WeatherCatV1.02B3,2013-01-13 03:23:00,
2013-01-12 22:28:00,56.7,53.5,29.99,ESE,119,6.0,7.0,89,0.00,,,0.01,WeatherCatV1.02B3,2013-01-13 03:28:00,
2013-01-12 22:33:00,56.9,53.7,29.99,SE,135,0.0,4.0,89,0.00,,,0.01,WeatherCatV1.02B3,2013-01-13 03:33:00,
2013-01-12 22:38:00,57.0,53.8,29.99,SE,136,3.0,6.0,89,0.00,,,0.01,WeatherCatV1.02B3,2013-01-13 03:38:00,
2013-01-12 22:43:00,57.0,53.8,29.99,SE,132,3.0,3.0,89,0.00,,,0.01,WeatherCatV1.02B3,2013-01-13 03:43:00,
2013-01-12 22:48:00,57.1,53.9,29.99,SE,128,3.0,4.0,89,0.00,,,0.01,WeatherCatV1.02B3,2013-01-13 03:48:00,
2013-01-12 22:53:00,57.2,53.7,29.99,SE,144,2.0,3.0,88,0.00,,,0.01,WeatherCatV1.02B3,2013-01-13 03:53:00,
2013-01-12 22:58:00,57.4,54.2,29.99,SE,130,1.0,2.0,89,0.00,,,0.01,WeatherCatV1.02B3,2013-01-13 03:58:00,
2013-01-12 23:03:00,57.5,54.0,29.98,SE,138,4.0,4.0,88,0.00,,,0.01,WeatherCatV1.02B3,2013-01-13 04:03:00,
2013-01-12 23:08:00,57.7,54.2,29.98,SSE,150,1.0,6.0,88,0.00,,,0.01,WeatherCatV1.02B3,2013-01-13 04:08:00,
2013-01-12 23:13:00,57.8,54.3,29.97,ESE,123,2.0,3.0,88,0.00,,,0.01,WeatherCatV1.02B3,2013-01-13 04:13:00,
2013-01-12 23:18:00,57.7,54.2,29.97,ESE,121,2.0,2.0,88,0.00,,,0.01,WeatherCatV1.02B3,2013-01-13 04:18:00,
2013-01-12 23:23:00,57.7,54.2,29.96,SE,144,0.0,3.0,88,0.00,,,0.01,WeatherCatV1.02B3,2013-01-13 04:23:00,
2013-01-12 23:28:00,57.7,54.2,29.96,SE,140,2.0,3.0,88,0.00,,,0.01,WeatherCatV1.02B3,2013-01-13 04:28:00,
2013-01-12 23:33:00,57.9,54.4,29.96,ESE,117,2.0,5.0,88,0.00,,,0.01,WeatherCatV1.02B3,2013-01-13 04:33:00,
2013-01-12 23:38:00,58.1,54.6,29.96,ESE,114,3.0,4.0,88,0.00,,,0.01,WeatherCatV1.02B3,2013-01-13 04:38:00,
2013-01-12 23:43:00,58.3,54.8,29.95,ESE,119,0.0,4.0,88,0.00,,,0.01,WeatherCatV1.02B3,2013-01-13 04:43:00,
2013-01-12 23:48:00,58.7,54.8,29.95,ESE,113,0.0,4.0,87,0.00,,,0.01,WeatherCatV1.02B3,2013-01-13 04:48:00,
2013-01-12 23:53:00,58.7,54.8,29.95,ESE,115,0.0,5.0,87,0.00,,,0.01,WeatherCatV1.02B3,2013-01-13 04:53:00,
2013-01-12 23:58:00,58.7,54.8,29.94,SE,141,2.0,6.0,87,0.00,,,0.01,WeatherCatV1.02B3,2013-01-13 04:58:00,